Main page
METAR-TAF:

METAR-TAF

Airports :

Glasgow Airport

Glasgow, Scotland

latitude: 55-52N, longitude: 004-26W, elevation: 8 m

Current weather observation

The report was made 27 minutes ago, at 13:20 UTC
Wind 6 kt from the Northeast
Temperature 4°C
Humidity 87%
Pressure 995 hPa
Visibility 10 km or more
Few clouds at a height of 2500 ft

METAR: EGPF 131320Z AUTO 05006KT 9999 FEW025 04/02 Q0995

Time: 13:47 (13:47 UTC)

Forecast

The report was made 2 hours and 48 minutes ago, at 10:59 UTC
Forecast valid from 13 at 12 UTC to 14 at 12 UTC
Wind 5 kt from the East
Visibility 10 km or more
Few clouds at a height of 3500 ft
Probability 30% :
Temporary
from 14 at 00 UTC to 14 at 10 UTC
Visibility: 0300 m
Broken clouds at a height lower than 100 ft
freezing fog

TAF: EGPF 131059Z 1312/1412 09005KT 9999 FEW035 PROB30 TEMPO 1400/1410 0300 FZFG BKN000

Weather observations and forecasts of more than 4000 airports (METAR and TAF reports).

The available stations are represented by yellow and red dots on the map.

Hover mouse over dot to see the name of the station.

Then click to see weather observations and forecasts.

To change the map : click on the green buttons with a black cross to zoom in, on the green button with a dash to zoom out, or on the green arrows for adjacent maps.


METAR-TAF: